createdAt,value
2018-07-25T00:01:00.331Z,3.73
2018-07-25T00:03:30.684Z,3.80
2018-07-25T00:06:00.966Z,4.47
2018-07-25T00:08:31.670Z,3.70
2018-07-25T00:11:03.166Z,3.83
2018-07-25T00:13:33.274Z,4.03
2018-07-25T00:16:04.117Z,3.70
2018-07-25T00:18:34.814Z,3.53
2018-07-25T00:21:05.580Z,4.00
2018-07-25T00:23:36.540Z,3.80
2018-07-25T00:26:07.245Z,4.13
2018-07-25T00:28:37.367Z,3.97
2018-07-25T00:31:08.139Z,4.47
2018-07-25T00:33:38.776Z,3.73
2018-07-25T00:36:09.483Z,4.13
2018-07-25T00:38:39.916Z,4.00
2018-07-25T00:41:10.707Z,4.10
2018-07-25T00:43:41.103Z,4.03
2018-07-25T00:46:11.693Z,3.63
2018-07-25T00:48:42.804Z,4.50
2018-07-25T00:51:13.489Z,4.37
2018-07-25T00:53:45.044Z,4.23
2018-07-25T00:56:16.249Z,4.03
2018-07-25T00:58:46.658Z,4.23
2018-07-25T01:01:16.994Z,3.93
2018-07-25T01:03:47.587Z,4.50
2018-07-25T01:06:17.875Z,4.57
2018-07-25T01:08:48.313Z,4.20
2018-07-25T01:11:19.158Z,3.93
2018-07-25T01:13:49.935Z,4.27
2018-07-25T01:16:20.659Z,4.53
2018-07-25T01:18:51.346Z,4.47
2018-07-25T01:21:22.493Z,4.20
2018-07-25T01:23:53.243Z,4.10
2018-07-25T01:26:23.659Z,3.90
2018-07-25T01:28:54.455Z,3.93
2018-07-25T01:31:25.158Z,3.60
2018-07-25T01:33:55.840Z,4.40
2018-07-25T01:36:26.795Z,4.73
2018-07-25T01:38:57.903Z,4.17
2018-07-25T01:41:28.826Z,4.50
2018-07-25T01:43:59.710Z,4.27
2018-07-25T01:46:30.597Z,4.60
2018-07-25T01:49:01.354Z,4.23
2018-07-25T01:51:31.992Z,4.57
2018-07-25T01:54:03.238Z,4.27
2018-07-25T01:56:33.638Z,4.57
2018-07-25T01:59:04.621Z,4.50
2018-07-25T02:01:35.283Z,4.43
2018-07-25T02:04:05.642Z,4.43
2018-07-25T02:06:35.975Z,4.17
2018-07-25T02:09:10.365Z,4.63
2018-07-25T02:11:41.862Z,4.40
2018-07-25T02:14:18.136Z,4.70
2018-07-25T02:16:49.108Z,4.40
2018-07-25T02:19:19.281Z,4.67
2018-07-25T02:21:50.450Z,4.50
2018-07-25T02:24:25.620Z,4.53
2018-07-25T02:26:56.237Z,4.30
2018-07-25T02:29:26.625Z,4.57
2018-07-25T02:31:57.142Z,4.60
2018-07-25T02:34:27.775Z,4.80
2018-07-25T02:36:58.058Z,4.27
2018-07-25T02:39:28.327Z,4.10
2018-07-25T02:41:58.548Z,4.40
2018-07-25T02:44:29.222Z,4.20
2018-07-25T02:46:59.798Z,4.30
2018-07-25T02:49:31.002Z,4.67
2018-07-25T02:52:01.375Z,4.00
2018-07-25T02:54:31.701Z,4.17
2018-07-25T02:57:02.525Z,4.30
2018-07-25T02:59:33.091Z,4.33
2018-07-25T03:02:03.988Z,4.23
2018-07-25T03:04:34.692Z,4.27
2018-07-25T03:07:05.419Z,4.87
2018-07-25T03:09:35.827Z,3.83
2018-07-25T03:12:06.416Z,4.20
2018-07-25T03:14:37.040Z,4.20
2018-07-25T03:17:08.136Z,4.83
2018-07-25T03:19:39.015Z,4.23
2018-07-25T03:22:09.628Z,4.37
2018-07-25T03:24:40.815Z,4.63
2018-07-25T03:27:11.415Z,4.50
2018-07-25T03:29:42.363Z,4.03
2018-07-25T03:32:13.367Z,5.00
2018-07-25T03:34:44.332Z,4.67
2018-07-25T03:37:14.915Z,4.50
2018-07-25T03:39:45.310Z,4.87
2018-07-25T03:42:16.223Z,4.03
2018-07-25T03:44:47.226Z,4.87
2018-07-25T03:47:17.939Z,4.73
2018-07-25T03:49:49.739Z,4.57
2018-07-25T03:52:20.695Z,4.20
2018-07-25T03:54:51.075Z,4.67
2018-07-25T03:57:21.433Z,5.10
2018-07-25T03:59:52.678Z,4.40
2018-07-25T04:02:23.028Z,4.70
2018-07-25T04:04:53.410Z,4.40
2018-07-25T04:07:23.755Z,4.50
2018-07-25T04:09:54.460Z,4.83
2018-07-25T04:12:25.382Z,4.83
2018-07-25T04:14:56.563Z,4.70
2018-07-25T04:17:31.619Z,5.20
2018-07-25T04:20:02.535Z,4.90
2018-07-25T04:22:32.875Z,4.43
2018-07-25T04:25:04.006Z,4.70
2018-07-25T04:27:34.720Z,5.10
2018-07-25T04:30:06.648Z,4.30
2018-07-25T04:32:37.223Z,4.63
2018-07-25T04:35:08.582Z,4.73
2018-07-25T04:37:39.199Z,4.67
2018-07-25T04:40:09.903Z,4.97
2018-07-25T04:42:40.816Z,4.67
2018-07-25T04:45:11.702Z,4.83
2018-07-25T04:47:42.168Z,4.80
2018-07-25T04:50:12.242Z,4.97
2018-07-25T04:52:42.466Z,4.97
2018-07-25T04:55:13.405Z,4.97
2018-07-25T04:57:43.746Z,5.20
2018-07-25T05:00:14.666Z,5.33
2018-07-25T05:02:45.298Z,4.83
2018-07-25T05:05:16.184Z,5.27
2018-07-25T05:07:46.218Z,5.07
2018-07-25T05:10:16.489Z,5.00
2018-07-25T05:12:47.043Z,5.67
2018-07-25T05:15:17.707Z,5.47
2018-07-25T05:17:48.396Z,5.30
2018-07-25T05:20:19.265Z,5.60
2018-07-25T05:22:50.171Z,5.27
2018-07-25T05:25:20.881Z,5.40
2018-07-25T05:27:51.599Z,5.40
2018-07-25T05:30:22.743Z,5.33
2018-07-25T05:32:53.347Z,5.10
2018-07-25T05:35:23.984Z,5.27
2018-07-25T05:37:54.326Z,5.23
2018-07-25T05:40:24.711Z,5.30
2018-07-25T05:42:55.382Z,5.43
2018-07-25T05:45:26.319Z,5.53
2018-07-25T05:47:57.190Z,5.83
2018-07-25T05:50:28.094Z,6.27
2018-07-25T05:52:59.054Z,5.30
2018-07-25T05:55:29.439Z,5.23
2018-07-25T05:58:00.084Z,5.30
2018-07-25T06:00:30.697Z,5.40
2018-07-25T06:03:01.164Z,4.93
2018-07-25T06:05:31.875Z,5.37
2018-07-25T06:08:07.836Z,5.27
2018-07-25T06:10:38.492Z,5.33
2018-07-25T06:13:09.392Z,5.53
2018-07-25T06:15:40.164Z,5.47
2018-07-25T06:18:10.823Z,5.43
2018-07-25T06:20:41.851Z,5.70
2018-07-25T06:23:12.634Z,4.83
2018-07-25T06:25:43.055Z,4.70
2018-07-25T06:28:13.627Z,5.50
2018-07-25T06:30:44.052Z,5.10
2018-07-25T06:33:14.402Z,5.17
2018-07-25T06:35:44.682Z,4.90
2018-07-25T06:38:15.223Z,4.70
2018-07-25T06:40:46.022Z,4.33
2018-07-25T06:43:16.453Z,4.47
2018-07-25T06:45:46.954Z,4.40
2018-07-25T06:48:18.329Z,4.50
2018-07-25T06:50:49.352Z,4.47
2018-07-25T06:53:22.350Z,4.00
2018-07-25T06:55:53.002Z,4.30
2018-07-25T06:58:23.388Z,4.03
2018-07-25T07:00:53.966Z,4.30
2018-07-25T07:03:24.052Z,4.40
2018-07-25T07:05:54.888Z,4.40
2018-07-25T07:08:26.126Z,4.53
2018-07-25T07:10:56.731Z,4.27
2018-07-25T07:13:27.443Z,3.77
2018-07-25T07:15:57.487Z,3.93
2018-07-25T07:18:28.048Z,4.55
2018-07-25T07:20:58.937Z,3.77
2018-07-25T07:23:28.898Z,3.93
2018-07-25T07:25:59.808Z,4.08
2018-07-25T07:28:30.748Z,4.00
2018-07-25T07:31:02.412Z,3.95
2018-07-25T07:33:35.000Z,3.92
2018-07-25T07:36:05.839Z,4.08
2018-07-25T07:38:36.927Z,4.00
2018-07-25T07:41:08.420Z,4.10
2018-07-25T07:43:39.372Z,3.72
2018-07-25T07:46:10.527Z,3.42
2018-07-25T07:48:42.318Z,3.90
2018-07-25T07:51:13.494Z,3.85
2018-07-25T07:53:45.019Z,3.67
2018-07-25T07:56:16.229Z,3.90
2018-07-25T07:58:47.172Z,3.80
2018-07-25T08:01:18.317Z,3.25
2018-07-25T08:03:49.577Z,3.75
2018-07-25T08:06:20.487Z,4.17
2018-07-25T08:08:51.672Z,3.60
2018-07-25T08:11:22.565Z,3.27
2018-07-25T08:13:53.562Z,3.35
2018-07-25T08:16:24.761Z,3.52
2018-07-25T08:18:55.964Z,3.30
2018-07-25T08:21:26.859Z,3.70
2018-07-25T08:23:57.699Z,3.80
2018-07-25T08:26:28.910Z,3.77
2018-07-25T08:29:00.599Z,3.63
2018-07-25T08:31:34.348Z,3.10
2018-07-25T08:34:05.657Z,3.27
2018-07-25T08:36:36.823Z,3.87
2018-07-25T08:39:10.479Z,3.47
2018-07-25T08:41:41.160Z,3.83
2018-07-25T08:44:12.476Z,3.27
2018-07-25T08:46:43.130Z,3.30
2018-07-25T08:49:14.478Z,3.47
2018-07-25T08:51:45.091Z,3.47
2018-07-25T08:54:16.320Z,3.60
2018-07-25T08:56:47.498Z,3.60
2018-07-25T08:59:18.392Z,3.90
2018-07-25T09:01:49.023Z,3.83
2018-07-25T09:04:20.127Z,3.83
2018-07-25T09:06:51.229Z,3.60
2018-07-25T09:09:21.583Z,4.10
2018-07-25T09:11:52.076Z,3.57
2018-07-25T09:14:23.040Z,3.30
2018-07-25T09:16:53.671Z,3.47
2018-07-25T09:19:24.927Z,3.13
2018-07-25T09:21:55.679Z,3.27
2018-07-25T09:24:26.376Z,2.80
2018-07-25T09:26:57.322Z,3.23
2018-07-25T09:29:28.246Z,3.40
2018-07-25T09:31:59.184Z,3.30
2018-07-25T09:34:30.281Z,3.30
2018-07-25T09:37:01.115Z,2.87
2018-07-25T09:39:32.075Z,2.93
2018-07-25T09:42:02.908Z,3.37
2018-07-25T09:44:34.012Z,3.07
2018-07-25T09:47:05.100Z,2.90
2018-07-25T09:49:36.463Z,2.77
2018-07-25T09:52:07.644Z,3.27
2018-07-25T09:54:38.501Z,3.20
2018-07-25T09:57:09.330Z,2.90
2018-07-25T09:59:40.788Z,3.40
2018-07-25T10:02:12.195Z,3.95
2018-07-25T10:04:43.540Z,2.83
2018-07-25T10:07:14.883Z,2.90
2018-07-25T10:09:46.301Z,3.00
2018-07-25T10:12:17.663Z,3.15
2018-07-25T10:14:48.599Z,2.80
2018-07-25T10:17:19.390Z,3.25
2018-07-25T10:19:50.340Z,3.20
2018-07-25T10:22:21.739Z,2.92
2018-07-25T10:24:52.796Z,3.25
2018-07-25T10:27:24.203Z,2.80
2018-07-25T10:29:56.014Z,3.12
2018-07-25T10:32:27.416Z,3.00
2018-07-25T10:34:58.365Z,2.72
2018-07-25T10:37:29.716Z,4.05
2018-07-25T10:40:01.152Z,3.30
2018-07-25T10:42:31.977Z,2.62
2018-07-25T10:45:03.304Z,4.42
2018-07-25T10:47:34.199Z,3.55
2018-07-25T10:50:06.759Z,3.37
2018-07-25T10:52:37.672Z,3.52
2018-07-25T10:55:08.809Z,3.47
2018-07-25T10:57:40.303Z,3.50
2018-07-25T11:00:11.719Z,3.20
2018-07-25T11:02:42.954Z,3.10
2018-07-25T11:05:14.515Z,3.30
2018-07-25T11:07:45.670Z,3.40
2018-07-25T11:10:17.075Z,3.35
2018-07-25T11:12:48.251Z,3.40
2018-07-25T11:15:19.491Z,3.67
2018-07-25T11:17:50.363Z,3.30
2018-07-25T11:20:21.076Z,3.75
2018-07-25T11:22:52.174Z,3.80
2018-07-25T11:25:23.607Z,3.70
2018-07-25T11:27:55.511Z,3.72
2018-07-25T11:30:26.145Z,3.42
2018-07-25T11:32:57.222Z,3.58
2018-07-25T11:35:29.251Z,3.62
2018-07-25T11:38:00.899Z,3.25
2018-07-25T11:40:31.867Z,3.40
2018-07-25T11:43:02.333Z,3.42
2018-07-25T11:45:33.678Z,3.75
2018-07-25T11:48:05.572Z,3.40
2018-07-25T11:50:37.328Z,3.45
2018-07-25T11:53:08.810Z,3.67
2018-07-25T11:55:40.613Z,3.25
2018-07-25T11:58:11.880Z,3.30
2018-07-25T12:00:42.510Z,3.15
2018-07-25T12:03:13.279Z,2.83
2018-07-25T12:05:44.459Z,3.00
2018-07-25T12:08:15.595Z,2.62
2018-07-25T12:10:46.974Z,2.75
2018-07-25T12:13:18.634Z,2.37
2018-07-25T12:15:50.051Z,2.90
2018-07-25T12:18:21.531Z,2.70
2018-07-25T12:20:52.158Z,2.47
2018-07-25T12:23:23.233Z,2.75
2018-07-25T12:25:54.399Z,2.52
2018-07-25T12:28:25.517Z,2.50
2018-07-25T12:30:56.887Z,2.70
2018-07-25T12:33:28.932Z,2.90
2018-07-25T12:36:00.568Z,2.15
2018-07-25T12:38:31.954Z,2.55
2018-07-25T12:41:03.116Z,2.95
2018-07-25T12:43:34.555Z,2.47
2018-07-25T12:46:05.778Z,2.75
2018-07-25T12:48:36.992Z,2.80
2018-07-25T12:51:09.124Z,2.47
2018-07-25T12:53:40.987Z,2.45
2018-07-25T12:56:12.359Z,2.10
2018-07-25T12:58:43.438Z,2.72
2018-07-25T13:01:15.044Z,2.37
2018-07-25T13:03:46.157Z,2.30
2018-07-25T13:06:17.910Z,2.30
2018-07-25T13:08:49.621Z,2.33
2018-07-25T13:11:20.831Z,2.20
2018-07-25T13:13:52.072Z,2.20
2018-07-25T13:16:23.099Z,2.15
2018-07-25T13:18:56.110Z,2.83
2018-07-25T13:21:26.975Z,3.12
2018-07-25T13:23:58.331Z,3.02
2018-07-25T13:26:29.511Z,3.35
2018-07-25T13:29:00.612Z,3.30
2018-07-25T13:31:32.806Z,3.12
2018-07-25T13:34:04.151Z,3.10
2018-07-25T13:36:35.851Z,3.15
2018-07-25T13:39:09.509Z,2.70
2018-07-25T13:41:41.408Z,2.80
2018-07-25T13:44:12.235Z,3.25
2018-07-25T13:46:43.244Z,3.83
2018-07-25T13:49:14.392Z,2.92
2018-07-25T13:51:45.760Z,2.70
2018-07-25T13:54:16.846Z,2.75
2018-07-25T13:56:48.255Z,2.50
2018-07-25T13:59:19.770Z,2.35
2018-07-25T14:01:51.227Z,2.35
2018-07-25T14:04:22.847Z,2.95
2018-07-25T14:06:54.031Z,2.83
2018-07-25T14:09:25.130Z,3.15
2018-07-25T14:11:56.952Z,2.87
2018-07-25T14:14:28.284Z,3.27
2018-07-25T14:17:00.163Z,3.05
2018-07-25T14:19:31.750Z,2.83
2018-07-25T14:22:03.195Z,2.83
2018-07-25T14:24:34.876Z,2.85
2018-07-25T14:27:06.281Z,2.87
2018-07-25T14:29:37.863Z,2.72
2018-07-25T14:32:09.574Z,2.55
2018-07-25T14:34:40.926Z,2.80
2018-07-25T14:37:12.282Z,2.87
2018-07-25T14:39:43.434Z,2.80
2018-07-25T14:42:15.071Z,3.15
2018-07-25T14:44:46.117Z,3.17
2018-07-25T14:47:18.140Z,2.85
2018-07-25T14:49:49.143Z,3.00
2018-07-25T14:52:20.845Z,2.72
2018-07-25T14:54:52.212Z,3.50
2018-07-25T14:57:24.251Z,3.08
2018-07-25T14:59:55.890Z,3.17
2018-07-25T15:02:27.414Z,2.98
2018-07-25T15:04:59.000Z,2.72
2018-07-25T15:07:30.371Z,2.67
2018-07-25T15:10:01.368Z,2.50
2018-07-25T15:12:38.578Z,2.47
2018-07-25T15:15:09.895Z,2.50
2018-07-25T15:17:42.321Z,2.50
2018-07-25T15:20:13.702Z,2.58
2018-07-25T15:22:44.845Z,2.70
2018-07-25T15:25:16.259Z,2.00
2018-07-25T15:27:47.300Z,2.80
2018-07-25T15:30:18.986Z,2.83
2018-07-25T15:32:50.718Z,2.67
2018-07-25T15:35:21.514Z,2.52
2018-07-25T15:37:52.522Z,2.60
2018-07-25T15:40:24.408Z,2.52
2018-07-25T15:42:56.396Z,2.42
2018-07-25T15:45:28.626Z,2.70
2018-07-25T15:48:00.087Z,3.20
2018-07-25T15:50:31.947Z,2.85
2018-07-25T15:53:03.725Z,2.95
2018-07-25T15:55:35.376Z,2.52
2018-07-25T15:58:07.147Z,2.92
2018-07-25T16:00:38.747Z,2.85
2018-07-25T16:03:10.365Z,2.80
2018-07-25T16:05:42.069Z,2.95
2018-07-25T16:08:13.170Z,3.05
2018-07-25T16:10:44.287Z,2.58
2018-07-25T16:13:15.837Z,2.67
2018-07-25T16:15:47.103Z,2.45
2018-07-25T16:18:18.788Z,2.67
2018-07-25T16:20:50.243Z,2.83
2018-07-25T16:23:21.887Z,2.70
2018-07-25T16:25:53.261Z,2.62
2018-07-25T16:28:25.284Z,1.80
2018-07-25T16:30:57.400Z,1.70
2018-07-25T16:33:28.981Z,1.60
2018-07-25T16:36:00.400Z,1.72
2018-07-25T16:38:32.092Z,1.40
2018-07-25T16:41:02.943Z,1.65
2018-07-25T16:43:33.618Z,1.40
2018-07-25T16:46:04.876Z,1.50
2018-07-25T16:48:36.546Z,1.50
2018-07-25T16:51:07.411Z,1.80
2018-07-25T16:53:38.207Z,1.50
2018-07-25T16:56:09.529Z,1.52
2018-07-25T16:58:40.940Z,1.55
2018-07-25T17:01:12.335Z,1.30
2018-07-25T17:03:44.253Z,1.55
2018-07-25T17:06:16.036Z,1.12
2018-07-25T17:08:47.537Z,1.37
2018-07-25T17:11:19.061Z,1.70
2018-07-25T17:13:50.863Z,1.60
2018-07-25T17:16:22.907Z,1.27
2018-07-25T17:18:53.884Z,1.30
2018-07-25T17:21:24.803Z,1.50
2018-07-25T17:23:55.923Z,1.65
2018-07-25T17:26:26.943Z,1.47
2018-07-25T17:28:58.587Z,1.62
2018-07-25T17:31:30.023Z,1.42
2018-07-25T17:34:01.330Z,1.50
2018-07-25T17:36:32.958Z,1.60
2018-07-25T17:39:06.634Z,1.70
2018-07-25T17:41:37.565Z,1.42
2018-07-25T17:44:08.942Z,1.80
2018-07-25T17:46:39.587Z,2.17
2018-07-25T17:49:10.856Z,1.52
2018-07-25T17:51:42.322Z,1.72
2018-07-25T17:54:13.393Z,1.65
2018-07-25T17:56:44.748Z,2.00
2018-07-25T17:59:15.778Z,1.75
2018-07-25T18:01:46.900Z,2.05
2018-07-25T18:04:18.290Z,1.90
2018-07-25T18:06:49.746Z,2.15
2018-07-25T18:09:20.681Z,2.27
2018-07-25T18:11:51.508Z,2.37
2018-07-25T18:14:22.343Z,2.27
2018-07-25T18:16:54.056Z,1.92
2018-07-25T18:19:25.759Z,2.08
2018-07-25T18:21:56.801Z,2.08
2018-07-25T18:24:28.343Z,1.95
2018-07-25T18:26:59.751Z,1.95
2018-07-25T18:29:30.699Z,1.95
2018-07-25T18:32:02.392Z,1.80
2018-07-25T18:34:33.000Z,2.20
2018-07-25T18:37:04.292Z,2.27
2018-07-25T18:39:35.384Z,1.85
2018-07-25T18:42:06.605Z,1.80
2018-07-25T18:44:37.973Z,1.82
2018-07-25T18:47:11.162Z,1.90
2018-07-25T18:49:42.485Z,1.97
2018-07-25T18:52:13.610Z,1.80
2018-07-25T18:54:44.461Z,1.60
2018-07-25T18:57:15.459Z,1.60
2018-07-25T18:59:46.053Z,1.60
2018-07-25T19:02:17.627Z,1.60
2018-07-25T19:04:48.518Z,1.77
2018-07-25T19:07:18.800Z,1.57
2018-07-25T19:09:49.618Z,1.33
2018-07-25T19:12:20.789Z,1.80
2018-07-25T19:14:57.335Z,1.57
2018-07-25T19:17:28.115Z,1.83
2018-07-25T19:19:58.466Z,2.00
2018-07-25T19:22:29.149Z,2.33
2018-07-25T19:24:59.763Z,1.93
2018-07-25T19:27:30.985Z,2.00
2018-07-25T19:30:01.914Z,2.00
2018-07-25T19:32:32.488Z,2.17
2018-07-25T19:35:03.441Z,1.80
2018-07-25T19:37:34.119Z,1.80
2018-07-25T19:40:05.480Z,1.90
2018-07-25T19:42:36.322Z,1.93
2018-07-25T19:45:07.496Z,1.73
2018-07-25T19:47:38.066Z,1.70
2018-07-25T19:50:08.642Z,1.80
2018-07-25T19:52:39.238Z,1.90
2018-07-25T19:55:09.812Z,1.60
2018-07-25T19:57:40.086Z,1.70
2018-07-25T20:00:16.380Z,1.77
2018-07-25T20:02:41.847Z,2.10
2018-07-25T20:05:12.177Z,1.80
2018-07-25T20:07:43.292Z,1.77
2018-07-25T20:10:13.597Z,1.77
2018-07-25T20:12:43.965Z,2.17
2018-07-25T20:15:19.685Z,1.90
2018-07-25T20:17:50.635Z,1.80
2018-07-25T20:20:21.614Z,1.90
2018-07-25T20:22:51.830Z,1.90
2018-07-25T20:25:22.461Z,1.70
2018-07-25T20:27:52.801Z,1.77
2018-07-25T20:30:24.227Z,1.83
2018-07-25T20:32:54.624Z,1.80
2018-07-25T20:35:25.507Z,1.80
2018-07-25T20:37:56.125Z,1.40
2018-07-25T20:40:26.779Z,1.90
2018-07-25T20:42:57.052Z,1.97
2018-07-25T20:45:27.270Z,1.73
2018-07-25T20:47:58.182Z,1.70
2018-07-25T20:50:28.755Z,1.87
2018-07-25T20:52:59.755Z,1.67
2018-07-25T20:55:31.142Z,1.60
2018-07-25T20:58:01.770Z,1.70
2018-07-25T21:00:35.349Z,1.70
2018-07-25T21:03:07.338Z,1.70
2018-07-25T21:05:38.577Z,1.80
2018-07-25T21:08:09.162Z,1.90
2018-07-25T21:10:39.790Z,1.60
2018-07-25T21:13:10.807Z,1.50
2018-07-25T21:15:41.117Z,2.17
2018-07-25T21:18:11.455Z,1.80
2018-07-25T21:20:41.767Z,1.80
2018-07-25T21:23:12.630Z,2.00
2018-07-25T21:25:43.339Z,1.90
2018-07-25T21:28:13.943Z,1.93
2018-07-25T21:30:44.310Z,2.13
2018-07-25T21:33:14.998Z,1.93
2018-07-25T21:35:45.658Z,2.00
2018-07-25T21:38:16.676Z,2.00
2018-07-25T21:40:47.267Z,2.10
2018-07-25T21:43:18.498Z,1.70
2018-07-25T21:45:49.100Z,2.10
2018-07-25T21:48:20.116Z,1.80
2018-07-25T21:50:50.399Z,2.00
2018-07-25T21:53:21.143Z,2.47
2018-07-25T21:55:52.249Z,1.90
2018-07-25T21:58:22.688Z,2.47
2018-07-25T22:01:00.262Z,1.67
2018-07-25T22:03:31.602Z,1.73
2018-07-25T22:06:02.531Z,1.67
2018-07-25T22:08:33.651Z,1.73
2018-07-25T22:11:04.518Z,1.80
2018-07-25T22:13:35.118Z,1.67
2018-07-25T22:16:05.738Z,1.90
2018-07-25T22:18:36.337Z,1.60
2018-07-25T22:21:07.214Z,1.40
2018-07-25T22:23:37.579Z,1.80
2018-07-25T22:26:07.938Z,1.70
2018-07-25T22:28:38.841Z,1.50
2018-07-25T22:31:08.857Z,1.50
2018-07-25T22:33:39.327Z,1.83
2018-07-25T22:36:10.823Z,1.67
2018-07-25T22:38:41.154Z,2.00
2018-07-25T22:41:11.947Z,2.07
2018-07-25T22:43:42.282Z,1.60
2018-07-25T22:46:13.335Z,1.70
2018-07-25T22:48:44.607Z,1.57
2018-07-25T22:51:15.495Z,1.50
2018-07-25T22:53:49.484Z,1.60
2018-07-25T22:56:19.790Z,1.80
2018-07-25T22:58:56.004Z,1.80
2018-07-25T23:01:26.522Z,1.77
2018-07-25T23:03:56.991Z,1.50
2018-07-25T23:06:27.604Z,1.50
2018-07-25T23:08:58.867Z,1.53
2018-07-25T23:11:29.191Z,1.60
2018-07-25T23:14:00.327Z,1.60
2018-07-25T23:16:30.646Z,1.90
2018-07-25T23:19:01.282Z,1.50
2018-07-25T23:21:32.167Z,1.60
2018-07-25T23:24:02.759Z,1.43
2018-07-25T23:26:33.877Z,1.90
2018-07-25T23:29:04.210Z,1.50
2018-07-25T23:31:34.997Z,1.87
2018-07-25T23:34:05.936Z,1.60
2018-07-25T23:36:36.562Z,1.90
2018-07-25T23:39:10.137Z,1.53
2018-07-25T23:41:41.098Z,1.77
2018-07-25T23:44:11.730Z,1.87
2018-07-25T23:46:42.082Z,1.50
2018-07-25T23:49:13.046Z,1.60
2018-07-25T23:51:44.305Z,1.80
2018-07-25T23:54:14.923Z,1.60
2018-07-25T23:56:46.115Z,1.60
2018-07-25T23:59:17.174Z,1.80
